createdAt,value
2023-03-25T00:03:09.323Z,10.70
2023-03-25T00:08:15.198Z,9.05
2023-03-25T00:13:19.270Z,12.10
2023-03-25T00:18:24.489Z,13.13
2023-03-25T00:23:31.540Z,12.00
2023-03-25T00:28:36.973Z,13.30
2023-03-25T00:33:42.791Z,13.30
2023-03-25T00:43:56.094Z,9.15
2023-03-25T00:49:01.191Z,9.82
2023-03-25T00:54:07.650Z,11.10
2023-03-25T00:59:11.766Z,11.98
2023-03-25T01:04:16.838Z,14.65
2023-03-25T01:09:22.829Z,11.70
2023-03-25T01:19:31.912Z,11.13
2023-03-25T01:24:37.584Z,12.50
2023-03-25T01:29:41.805Z,10.30
2023-03-25T01:34:47.035Z,11.85
2023-03-25T01:39:52.934Z,9.45
2023-03-25T01:50:22.657Z,12.88
2023-03-25T01:55:29.165Z,14.67
2023-03-25T02:00:33.460Z,12.93
2023-03-25T02:05:43.540Z,8.07
2023-03-25T02:10:49.633Z,11.13
2023-03-25T02:16:12.447Z,13.98
2023-03-25T02:21:51.989Z,11.10
2023-03-25T02:27:27.475Z,10.98
2023-03-25T02:32:51.689Z,10.27
2023-03-25T02:38:26.822Z,11.65
2023-03-25T02:43:38.713Z,11.73
2023-03-25T02:48:52.686Z,8.82
2023-03-25T02:54:03.844Z,10.23
2023-03-25T02:59:09.869Z,10.30
2023-03-25T03:04:14.032Z,14.35
2023-03-25T03:09:30.775Z,10.55
2023-03-25T03:14:55.441Z,11.68
2023-03-25T03:20:08.763Z,10.52
2023-03-25T03:25:27.769Z,10.57
2023-03-25T03:30:39.650Z,10.40
2023-03-25T03:35:50.654Z,10.93
2023-03-25T03:41:01.822Z,12.80
2023-03-25T03:46:08.954Z,12.77
2023-03-25T03:51:18.744Z,10.65
2023-03-25T03:56:27.831Z,9.30
2023-03-25T04:01:36.146Z,7.97
2023-03-25T04:06:42.983Z,9.18
2023-03-25T04:11:55.077Z,9.10
2023-03-25T04:16:59.825Z,10.43
2023-03-25T04:22:05.731Z,7.88
2023-03-25T04:32:18.270Z,8.55
2023-03-25T04:37:24.009Z,13.48
2023-03-25T04:42:32.825Z,12.15
2023-03-25T04:47:38.287Z,8.82
2023-03-25T04:52:42.608Z,10.93
2023-03-25T04:57:49.743Z,11.65
2023-03-25T05:02:56.273Z,11.93
2023-03-25T05:08:01.574Z,11.13
2023-03-25T05:13:09.118Z,9.77
2023-03-25T05:18:15.300Z,8.80
2023-03-25T05:23:19.647Z,12.52
2023-03-25T05:28:25.324Z,9.57
2023-03-25T05:33:29.479Z,13.77
2023-03-25T05:38:34.044Z,10.77
2023-03-25T05:43:40.138Z,10.70
2023-03-25T05:53:50.036Z,13.02
2023-03-25T05:58:56.545Z,14.70
2023-03-25T06:04:01.990Z,12.45
2023-03-25T06:09:07.273Z,15.43
2023-03-25T06:14:12.775Z,36.42
2023-03-25T06:19:18.574Z,13.50
2023-03-25T06:24:22.742Z,15.23
2023-03-25T06:29:28.426Z,14.68
2023-03-25T06:34:33.986Z,15.27
2023-03-25T06:39:38.579Z,16.33
2023-03-25T06:44:52.323Z,14.88
2023-03-25T06:50:12.856Z,14.13
2023-03-25T06:55:17.214Z,16.15
2023-03-25T07:00:24.728Z,14.10
2023-03-25T07:05:28.885Z,20.00
2023-03-25T07:10:33.126Z,18.77
2023-03-25T07:15:39.103Z,18.95
2023-03-25T07:25:51.277Z,14.10
2023-03-25T07:30:56.987Z,15.77
2023-03-25T07:36:01.124Z,27.65
2023-03-25T07:41:07.620Z,14.30
2023-03-25T07:46:13.524Z,17.40
2023-03-25T07:56:21.605Z,16.48
2023-03-25T08:01:27.330Z,10.77
2023-03-25T08:06:32.141Z,11.23
2023-03-25T08:11:36.232Z,13.82
2023-03-25T08:16:41.777Z,9.32
2023-03-25T08:21:46.154Z,10.90
2023-03-25T08:26:50.294Z,17.35
2023-03-25T08:31:56.633Z,22.60
2023-03-25T08:37:00.661Z,12.65
2023-03-25T08:42:04.911Z,8.75
2023-03-25T08:47:19.339Z,20.15
2023-03-25T08:52:23.629Z,16.80
2023-03-25T08:57:27.870Z,13.73
2023-03-25T09:02:33.620Z,19.15
2023-03-25T09:07:38.227Z,13.52
2023-03-25T09:12:42.774Z,18.15
2023-03-25T09:17:48.599Z,17.73
2023-03-25T09:27:57.287Z,18.83
2023-03-25T09:33:03.147Z,16.33
2023-03-25T09:43:33.843Z,10.45
2023-03-25T09:48:41.636Z,9.43
2023-03-25T09:53:50.860Z,12.85
2023-03-25T09:58:58.028Z,11.18
2023-03-25T10:04:29.062Z,8.38
2023-03-25T10:09:48.436Z,10.27
2023-03-25T10:15:02.999Z,10.00
2023-03-25T10:20:17.799Z,11.85
2023-03-25T10:25:26.426Z,13.00
2023-03-25T10:30:36.160Z,11.73
2023-03-25T10:35:46.209Z,13.23
2023-03-25T10:40:53.521Z,14.02
2023-03-25T10:46:01.655Z,17.35
2023-03-25T10:51:12.863Z,16.13
2023-03-25T10:56:20.126Z,16.48
2023-03-25T11:01:37.292Z,13.90
2023-03-25T11:06:46.954Z,15.63
2023-03-25T11:11:51.244Z,14.77
2023-03-25T11:16:58.315Z,14.90
2023-03-25T11:22:12.330Z,14.85
2023-03-25T11:27:21.052Z,17.00
2023-03-25T11:32:33.447Z,46.15
2023-03-25T11:37:47.278Z,38.72
2023-03-25T11:42:55.099Z,15.00
2023-03-25T11:48:01.555Z,16.13
2023-03-25T11:53:07.904Z,18.90
2023-03-25T11:58:17.399Z,16.42
2023-03-25T12:03:24.713Z,15.57
2023-03-25T12:08:43.215Z,13.57
2023-03-25T12:14:10.608Z,15.52
2023-03-25T12:19:25.083Z,17.38
2023-03-25T12:24:47.107Z,10.23
2023-03-25T12:29:58.513Z,13.30
2023-03-25T12:35:19.729Z,11.73
2023-03-25T12:40:54.385Z,18.92
2023-03-25T12:46:17.161Z,10.98
2023-03-25T12:51:31.465Z,14.05
2023-03-25T12:56:47.937Z,11.32
2023-03-25T13:02:03.021Z,14.15
2023-03-25T13:07:11.394Z,9.52
2023-03-25T13:12:32.506Z,11.32
2023-03-25T13:17:43.309Z,9.60
2023-03-25T13:22:52.282Z,14.10
2023-03-25T13:28:04.441Z,9.15
2023-03-25T13:33:16.050Z,9.70
2023-03-25T13:38:25.980Z,6.95
2023-03-25T13:43:37.642Z,15.63
2023-03-25T13:48:48.668Z,8.02
2023-03-25T13:53:59.453Z,10.52
2023-03-25T13:59:28.012Z,11.15
2023-03-25T14:04:53.760Z,12.30
2023-03-25T14:10:29.737Z,9.85
2023-03-25T14:20:42.008Z,11.52
2023-03-25T14:25:50.178Z,11.03
2023-03-25T14:31:30.796Z,8.13
2023-03-25T14:37:31.461Z,13.20
2023-03-25T14:42:44.581Z,11.35
2023-03-25T14:47:54.445Z,15.38
2023-03-25T14:53:01.384Z,9.25
2023-03-25T14:58:17.352Z,10.95
2023-03-25T15:03:24.091Z,9.82
2023-03-25T15:08:35.578Z,10.85
2023-03-25T15:13:41.908Z,27.67
2023-03-25T15:19:06.566Z,29.58
2023-03-25T15:24:13.394Z,10.95
2023-03-25T15:29:47.988Z,9.00
2023-03-25T15:35:32.940Z,12.98
2023-03-25T15:41:02.608Z,15.55
2023-03-25T15:46:53.654Z,12.55
2023-03-25T15:52:19.768Z,11.68
2023-03-25T15:57:30.444Z,11.30
2023-03-25T16:02:40.761Z,11.52
2023-03-25T16:07:47.195Z,10.10
2023-03-25T16:12:51.682Z,14.50
2023-03-25T16:17:56.483Z,18.73
2023-03-25T16:23:04.138Z,13.17
2023-03-25T16:28:14.633Z,14.75
2023-03-25T16:33:21.817Z,13.73
2023-03-25T16:38:28.101Z,12.93
2023-03-25T16:43:32.900Z,9.70
2023-03-25T16:48:39.776Z,13.45
2023-03-25T16:53:48.230Z,17.20
2023-03-25T16:59:00.278Z,16.77
2023-03-25T17:04:11.764Z,22.88
2023-03-25T17:09:20.971Z,14.60
2023-03-25T17:14:30.960Z,19.15
2023-03-25T17:19:35.535Z,16.73
2023-03-25T17:24:43.440Z,26.08
2023-03-25T17:29:51.926Z,37.35
2023-03-25T17:35:05.219Z,38.33
2023-03-25T17:40:21.069Z,46.35
2023-03-25T17:45:26.760Z,36.85
2023-03-25T17:50:33.249Z,43.90
2023-03-25T17:55:38.896Z,44.97
2023-03-25T18:00:43.303Z,56.47
2023-03-25T18:05:51.063Z,72.68
2023-03-25T18:10:57.562Z,86.22
2023-03-25T18:16:02.127Z,101.82
2023-03-25T18:21:08.163Z,93.43
2023-03-25T18:26:17.013Z,105.38
2023-03-25T18:31:23.604Z,79.82
2023-03-25T18:36:27.736Z,63.13
2023-03-25T18:41:33.302Z,45.42
2023-03-25T18:46:37.601Z,37.47
2023-03-25T18:51:41.865Z,33.08
2023-03-25T18:56:47.524Z,33.70
2023-03-25T19:01:51.830Z,26.27
2023-03-25T19:06:57.239Z,21.58
2023-03-25T19:12:02.779Z,24.67
2023-03-25T19:17:07.407Z,26.25
2023-03-25T19:22:16.352Z,20.48
2023-03-25T19:27:21.882Z,24.92
2023-03-25T19:32:26.709Z,25.77
2023-03-25T19:37:35.365Z,28.13
2023-03-25T19:42:41.622Z,23.13
2023-03-25T19:47:46.339Z,19.48
2023-03-25T19:52:53.246Z,20.52
2023-03-25T19:57:58.988Z,20.85
2023-03-25T20:03:03.672Z,17.25
2023-03-25T20:08:09.457Z,20.52
2023-03-25T20:13:15.205Z,19.45
2023-03-25T20:18:20.052Z,23.60
2023-03-25T20:23:24.242Z,30.80
2023-03-25T20:28:31.539Z,45.53
2023-03-25T20:33:35.864Z,43.10
2023-03-25T20:38:47.299Z,22.15
2023-03-25T20:44:00.445Z,21.05
2023-03-25T20:49:08.988Z,17.60
2023-03-25T20:54:15.122Z,20.15
2023-03-25T20:59:21.560Z,22.83
2023-03-25T21:04:26.611Z,32.28
2023-03-25T21:09:31.687Z,32.73
2023-03-25T21:14:38.226Z,28.60
2023-03-25T21:19:42.780Z,19.13
2023-03-25T21:24:46.938Z,18.42
2023-03-25T21:29:52.565Z,25.60
2023-03-25T21:34:56.796Z,26.08
2023-03-25T21:40:00.864Z,32.13
2023-03-25T21:45:08.494Z,26.63
2023-03-25T21:50:14.256Z,22.67
2023-03-25T21:55:19.672Z,21.77
2023-03-25T22:00:25.615Z,19.35
2023-03-25T22:10:36.854Z,30.65
2023-03-25T22:15:42.581Z,39.05
2023-03-25T22:20:47.092Z,36.15
2023-03-25T22:25:52.546Z,26.13
2023-03-25T22:30:58.499Z,22.30
2023-03-25T22:36:11.949Z,20.90
2023-03-25T22:41:17.279Z,20.88
2023-03-25T22:46:23.595Z,23.70
2023-03-25T22:51:28.800Z,26.85
2023-03-25T22:56:34.664Z,26.27
2023-03-25T23:06:51.164Z,25.02
2023-03-25T23:12:01.320Z,21.92
2023-03-25T23:17:06.926Z,24.85
2023-03-25T23:22:11.310Z,20.50
2023-03-25T23:27:15.719Z,23.52
2023-03-25T23:32:21.475Z,24.95
2023-03-25T23:37:27.404Z,25.75
2023-03-25T23:47:41.673Z,25.75
2023-03-25T23:57:50.311Z,26.52
